• Join FlightAware (Why Join?)
  • Login
  • US Flag 
02:57AM EST


 

Airport Tracker/Info


-or-


 

Live Flight TrackerFlight Track Log ✈ EGF3796 ✈ 26-Apr-2013 ✈ KORD - KXNA

Flight Track Log - Related Links

Times and Time Zones

All times are in EDT time to prevent confusion due to time zone crossing. See the EGF3796 flight status page for this flight to view local times or setup timezone preferences in your user account.

Time Position Orientation Groundspeed Altitude Reporting Facility
EDT Latitude Longitude Course Direction KTS MPH feet Rate Location/Type
06:35PM 41.9500 -87.9167 194° South 149 171 2,100  Level Chicago TRACON
06:36PM 41.9000 -87.9500 206° Southwest 204 235 4,100 1,200 Climbing Chicago TRACON
06:38PM 41.6941 -88.0311 203° Southwest  Level FlightAware Approximate
06:38PM 41.8144 -88.0058 206° Southwest 232 267 5,200  Level Chicago Center
06:39PM 41.6013 -88.0826 203° Southwest  Level FlightAware Approximate
06:39PM 41.7469 -88.0108 183° South 245 282 8,300  Level Chicago Center
06:40PM 41.5051 -88.1213 197° South  Level FlightAware Approximate
06:40PM 41.6814 -88.0439 201° Southwest 253 291 10,800  Level Chicago Center
06:41PM 41.4086 -88.1582 194° South  Level FlightAware Approximate
06:41PM 41.6089 -88.0792 200° South 276 318 12,800  Level Chicago Center
06:42PM 41.5261 -88.1208 201° Southwest 316 364 14,100 1,200 Climbing Chicago Center
06:43PM 41.4114 -88.1772 200° South 380 437 15,300 1,260 Climbing Chicago Center
06:44PM 41.3072 -88.2242 199° South 404 465 16,800 1,500 Climbing Chicago Center
06:45PM 41.1992 -88.2733 199° South 413 475 18,500 1,740 Climbing Chicago Center
06:46PM 41.0914 -88.3219 199° South 412 474 20,500 1,740 Climbing Chicago Center
06:47PM 40.9611 -88.3786 198° South 413 475 22,200 1,320 Climbing Chicago Center
06:48PM 40.8492 -88.4297 199° South 425 489 23,300 960 Climbing Chicago Center
06:49PM 40.7342 -88.4819 199° South 437 503 24,300 900 Climbing Chicago Center
06:50PM 40.6150 -88.5347 199° South 449 517 25,200 960 Climbing Chicago Center
06:51PM 40.4975 -88.5861 198° South 449 517 26,300 1,080 Climbing Chicago Center
06:52PM 40.3531 -88.6500 199° South 454 522 27,500 1,260 Climbing Chicago Center
06:53PM 40.2578 -88.7414 216° Southwest 428 493 29,000 1,320 Climbing Chicago Center
06:54PM 40.1767 -88.8467 225° Southwest 411 473 30,300 1,200 Climbing Chicago Center
06:55PM 40.1108 -88.9275 223° Southwest 404 465 31,200 1,020 Climbing Kansas City Center
06:56PM 40.0311 -89.0297 224° Southwest 400 460 32,200 960 Climbing Kansas City Center
06:57PM 39.9519 -89.1283 224° Southwest 396 456 33,200 840 Climbing Kansas City Center
06:58PM 39.8744 -89.2283 225° Southwest 392 451 34,000 720 Climbing Kansas City Center
06:59PM 39.7964 -89.3258 224° Southwest 389 448 34,800 720 Climbing Kansas City Center
07:00PM 39.7186 -89.4222 224° Southwest 386 444 35,600 540 Climbing Kansas City Center
07:01PM 39.6333 -89.5311 225° Southwest 381 438 36,000 180 Climbing Kansas City Center
07:02PM 39.5569 -89.6247 223° Southwest 380 437 36,000  Level Kansas City Center
07:03PM 39.4808 -89.7203 224° Southwest 381 438 36,000  Level Kansas City Center
07:05PM 39.4053 -89.8133 224° Southwest 378 435 36,000  Level Kansas City Center
07:06PM 39.3294 -89.9069 224° Southwest 378 435 36,000  Level Kansas City Center
07:07PM 39.2389 -90.0194 224° Southwest 379 436 36,000  Level Kansas City Center
07:08PM 39.1614 -90.1147 224° Southwest 383 441 36,000  Level Kansas City Center
07:09PM 39.0836 -90.2111 224° Southwest 388 447 36,000  Level Kansas City Center
07:10PM 39.0053 -90.3075 224° Southwest 391 450 36,000  Level Kansas City Center
07:11PM 38.9186 -90.4133 224° Southwest 390 449 36,000  Level Kansas City Center
07:12PM 38.8400 -90.5119 224° Southwest 388 447 36,000  Level Kansas City Center
07:13PM 38.7681 -90.6181 229° Southwest 383 441 36,000  Level Kansas City Center
07:14PM 38.6933 -90.7325 230° Southwest 391 450 36,000  Level Kansas City Center
07:15PM 38.6228 -90.8378 229° Southwest 391 450 36,000  Level Kansas City Center
07:16PM 38.5483 -90.9483 229° Southwest 405 466 36,000  Level Kansas City Center
07:17PM 38.4608 -91.0781 229° Southwest 405 466 36,000  Level Kansas City Center
07:18PM 38.3881 -91.1850 229° Southwest 403 464 36,000  Level Kansas City Center
07:19PM 38.3150 -91.2925 229° Southwest 402 463 36,000  Level Kansas City Center
07:20PM 38.2400 -91.3997 228° Southwest 398 458 36,000  Level Kansas City Center
07:21PM 38.1769 -91.5167 236° Southwest 405 466 36,000  Level Kansas City Center
07:22PM 38.1233 -91.6414 241° Southwest 401 461 36,000  Level Kansas City Center
07:23PM 38.0672 -91.7647 240° Southwest 401 461 36,000  Level Kansas City Center
07:24PM 38.0133 -91.8892 241° Southwest 401 461 36,000  Level Kansas City Center
07:25PM 37.9583 -92.0125 241° Southwest 401 461 36,000  Level Kansas City Center
07:26PM 37.8958 -92.1539 241° Southwest 405 466 36,000  Level Kansas City Center
07:27PM 37.8375 -92.2750 239° Southwest 412 474 36,000 -120 Level Kansas City Center
07:28PM 37.7819 -92.4011 241° Southwest 412 474 35,800 -1,140 Descending Kansas City Center
07:29PM 37.7286 -92.5231 241° Southwest 404 465 33,700 -2,280 Descending Kansas City Center
07:30PM 37.6747 -92.6422 240° Southwest 393 452 31,200 -2,880 Descending Kansas City Center
07:31PM 37.6075 -92.7872 240° Southwest 407 468 27,800 -2,700 Descending Kansas City Center
07:32PM 37.5525 -92.9061 240° Southwest 397 457 25,700 -2,460 Descending Kansas City Center
07:33PM 37.4972 -93.0253 240° Southwest 393 452 22,900 -2,820 Descending Kansas City Center
07:34PM 37.4447 -93.1408 240° Southwest 383 441 20,000 -2,640 Descending Kansas City Center
07:35PM 37.4108 -93.2617 251° West 368 423 17,400 -1,980 Descending Kansas City Center
07:36PM 37.3650 -93.3647 241° Southwest 345 397 16,000 -2,100 Descending Kansas City Center
07:37PM 37.2989 -93.4486 225° Southwest 347 399 13,100 -2,640 Descending Kansas City Center
07:38PM 37.2000 -93.5181 209° Southwest 344 396 10,700 -1,560 Descending Kansas City Center
07:40PM 37.1239 -93.5847 215° Southwest 336 387 10,000 -420 Descending Kansas City Center
07:41PM 37.0489 -93.6494 215° Southwest 329 379 9,900 -60 Descending Kansas City Center
07:42PM 36.9714 -93.7156 214° Southwest 332 382 9,900  Level Kansas City Center
07:43PM 36.8986 -93.7789 215° Southwest 335 386 9,900  Level Kansas City Center
07:44PM 36.8014 -93.7886 185° South 349 402 9,900  Level Kansas City Center
07:45PM 36.7125 -93.8222 197° South 352 405 10,000 -180 Climbing Kansas City Center
07:46PM 36.6631 -93.9217 238° Southwest 288 331 9,600 -840 Descending Kansas City Center
07:47PM 36.6344 -93.9989 245° Southwest 255 293 8,400 -1,560 Descending Kansas City Center
07:48PM 36.6047 -94.0753 244° Southwest 248 285 6,500 -1,440 Descending Kansas City Center
07:49PM 36.5817 -94.1367 245° Southwest 218 251 5,500 -840 Descending Kansas City Center
07:50PM 36.5611 -94.1928 245° Southwest 191 220 4,800 -360 Descending Kansas City Center
07:51PM 36.5403 -94.2481 245° Southwest 180 207 4,800 -600 Level Kansas City Center
07:52PM 36.5186 -94.3042 244° Southwest 179 206 3,600 -960 Descending Kansas City Center
07:53PM 36.4975 -94.3639 246° West 183 211 2,900 -360 Descending Kansas City Center
07:54PM 36.4558 -94.3844 202° Southwest 190 219 2,900 -60 Level Kansas City Center
07:55PM 36.3986 -94.3633 163° South 183 211 2,800 -120 Descending Kansas City Center